createdAt,value
2023-02-24T00:02:01.667Z,2.20
2023-02-24T00:04:32.102Z,1.63
2023-02-24T00:07:00.995Z,2.00
2023-02-24T00:09:33.460Z,2.03
2023-02-24T00:12:04.293Z,1.50
2023-02-24T00:14:35.098Z,1.93
2023-02-24T00:17:04.438Z,2.30
2023-02-24T00:19:34.115Z,1.60
2023-02-24T00:22:04.165Z,1.52
2023-02-24T00:24:34.764Z,1.75
2023-02-24T00:27:07.787Z,1.88
2023-02-24T00:29:37.881Z,1.83
2023-02-24T00:32:08.308Z,1.90
2023-02-24T00:34:40.070Z,2.08
2023-02-24T00:39:41.813Z,1.83
2023-02-24T00:42:11.828Z,1.80
2023-02-24T00:44:42.269Z,1.75
2023-02-24T00:47:13.098Z,1.80
2023-02-24T00:49:43.303Z,1.60
2023-02-24T00:52:13.898Z,1.83
2023-02-24T00:54:44.242Z,1.73
2023-02-24T00:57:14.435Z,1.50
2023-02-24T00:59:47.581Z,1.73
2023-02-24T01:02:16.727Z,1.70
2023-02-24T01:04:45.606Z,1.77
2023-02-24T01:07:14.150Z,2.13
2023-02-24T01:09:44.474Z,1.98
2023-02-24T01:12:33.826Z,1.88
2023-02-24T01:15:05.146Z,1.80
2023-02-24T01:17:33.600Z,1.70
2023-02-24T01:20:16.069Z,2.10
2023-02-24T01:22:45.496Z,1.90
2023-02-24T01:25:15.876Z,1.83
2023-02-24T01:27:45.431Z,1.85
2023-02-24T01:30:16.364Z,1.92
2023-02-24T01:32:47.073Z,1.63
2023-02-24T01:35:15.936Z,1.88
2023-02-24T01:37:45.523Z,1.73
2023-02-24T01:40:21.855Z,2.17
2023-02-24T01:42:50.993Z,2.05
2023-02-24T01:45:26.199Z,1.70
2023-02-24T01:47:58.014Z,1.67
2023-02-24T01:50:27.937Z,1.73
2023-02-24T01:52:59.223Z,1.65
2023-02-24T01:55:33.606Z,1.27
2023-02-24T01:58:04.816Z,1.75
2023-02-24T02:00:44.968Z,2.30
2023-02-24T02:03:20.806Z,1.90
2023-02-24T02:05:49.382Z,1.55
2023-02-24T02:08:20.315Z,1.42
2023-02-24T02:10:51.903Z,1.70
2023-02-24T02:13:21.219Z,1.70
2023-02-24T02:16:14.145Z,2.50
2023-02-24T02:18:56.443Z,1.77
2023-02-24T02:21:45.037Z,1.70
2023-02-24T02:24:40.589Z,2.53
2023-02-24T02:27:34.949Z,3.38
2023-02-24T02:30:43.976Z,2.53
2023-02-24T02:33:45.203Z,2.13
2023-02-24T02:36:22.408Z,1.70
2023-02-24T02:38:57.594Z,1.92
2023-02-24T02:41:30.666Z,1.85
2023-02-24T02:44:08.795Z,2.03
2023-02-24T02:46:43.998Z,1.80
2023-02-24T02:49:19.220Z,1.67
2023-02-24T02:51:52.881Z,1.60
2023-02-24T02:54:28.707Z,1.65
2023-02-24T02:57:03.342Z,1.95
2023-02-24T02:59:35.198Z,1.60
2023-02-24T03:02:14.988Z,1.58
2023-02-24T03:04:51.673Z,1.70
2023-02-24T03:07:22.335Z,1.73
2023-02-24T03:09:56.709Z,1.90
2023-02-24T03:12:27.919Z,1.70
2023-02-24T03:15:02.170Z,2.50
2023-02-24T03:17:33.792Z,1.75
2023-02-24T03:20:14.019Z,2.15
2023-02-24T03:22:47.125Z,2.00
2023-02-24T03:25:16.955Z,2.00
2023-02-24T03:27:50.644Z,1.70
2023-02-24T03:30:26.837Z,1.40
2023-02-24T03:32:59.032Z,1.52
2023-02-24T03:35:34.463Z,1.48
2023-02-24T03:38:03.621Z,1.42
2023-02-24T03:40:35.823Z,1.80
2023-02-24T03:43:07.667Z,1.20
2023-02-24T03:45:40.765Z,1.65
2023-02-24T03:48:12.031Z,1.52
2023-02-24T03:50:43.787Z,1.30
2023-02-24T03:53:32.905Z,1.88
2023-02-24T03:56:11.116Z,1.40
2023-02-24T03:58:52.241Z,2.00
2023-02-24T04:01:28.426Z,1.50
2023-02-24T04:04:04.484Z,1.67
2023-02-24T04:06:43.990Z,1.70
2023-02-24T04:09:20.168Z,2.15
2023-02-24T04:11:57.811Z,2.28
2023-02-24T04:14:32.199Z,2.25
2023-02-24T04:17:08.147Z,1.80
2023-02-24T04:19:41.511Z,1.83
2023-02-24T04:22:15.714Z,2.50
2023-02-24T04:24:47.892Z,2.63
2023-02-24T04:27:18.174Z,2.95
2023-02-24T04:29:51.531Z,2.50
2023-02-24T04:32:23.795Z,2.10
2023-02-24T04:34:52.643Z,1.77
2023-02-24T04:37:23.338Z,2.03
2023-02-24T04:39:52.119Z,1.50
2023-02-24T04:42:22.428Z,2.03
2023-02-24T04:44:51.106Z,2.60
2023-02-24T04:47:19.585Z,1.65
2023-02-24T04:49:48.249Z,4.13
2023-02-24T04:52:16.599Z,4.07
2023-02-24T04:54:46.568Z,2.58
2023-02-24T04:57:15.079Z,3.05
2023-02-24T04:59:44.305Z,2.17
2023-02-24T05:02:18.882Z,1.83
2023-02-24T05:04:49.872Z,1.50
2023-02-24T05:07:18.463Z,2.72
2023-02-24T05:09:49.118Z,3.40
2023-02-24T05:12:17.469Z,2.28
2023-02-24T05:14:49.552Z,2.35
2023-02-24T05:17:18.875Z,2.50
2023-02-24T05:20:04.821Z,2.50
2023-02-24T05:22:33.429Z,2.55
2023-02-24T05:25:04.885Z,2.92
2023-02-24T05:27:39.059Z,2.17
2023-02-24T05:30:09.902Z,2.05
2023-02-24T05:32:38.665Z,3.30
2023-02-24T05:35:08.484Z,1.90
2023-02-24T05:37:42.151Z,2.22
2023-02-24T05:40:14.825Z,2.83
2023-02-24T05:42:45.440Z,2.65
2023-02-24T05:45:14.197Z,2.63
2023-02-24T05:47:46.480Z,2.20
2023-02-24T05:50:15.069Z,2.35
2023-02-24T05:52:45.961Z,3.75
2023-02-24T05:55:16.714Z,2.90
2023-02-24T05:57:45.331Z,2.20
2023-02-24T06:00:16.860Z,1.88
2023-02-24T06:02:49.904Z,2.00
2023-02-24T06:05:26.846Z,3.85
2023-02-24T06:08:04.882Z,4.13
2023-02-24T06:10:36.384Z,2.72
2023-02-24T06:13:06.951Z,1.92
2023-02-24T06:15:35.636Z,1.80
2023-02-24T06:18:04.009Z,2.30
2023-02-24T06:20:35.573Z,2.10
2023-02-24T06:23:05.453Z,1.80
2023-02-24T06:25:35.414Z,1.77
2023-02-24T06:28:03.957Z,2.28
2023-02-24T06:30:32.875Z,2.08
2023-02-24T06:33:01.464Z,1.92
2023-02-24T06:35:29.888Z,2.08
2023-02-24T06:37:58.477Z,2.45
2023-02-24T06:40:26.763Z,2.10
2023-02-24T06:42:56.635Z,1.92
2023-02-24T06:45:26.533Z,2.00
2023-02-24T06:47:54.851Z,2.08
2023-02-24T06:50:23.779Z,2.03
2023-02-24T06:52:53.308Z,1.67
2023-02-24T06:55:27.166Z,2.40
2023-02-24T06:57:59.383Z,1.50
2023-02-24T07:00:37.248Z,2.13
2023-02-24T07:03:16.634Z,2.08
2023-02-24T07:05:50.298Z,3.70
2023-02-24T07:08:21.193Z,2.63
2023-02-24T07:10:56.015Z,2.67
2023-02-24T07:13:28.882Z,3.40
2023-02-24T07:15:57.491Z,3.47
2023-02-24T07:18:26.677Z,2.90
2023-02-24T07:20:55.249Z,2.80
2023-02-24T07:23:23.576Z,2.40
2023-02-24T07:25:53.455Z,2.60
2023-02-24T07:28:22.949Z,2.50
2023-02-24T07:30:53.353Z,3.83
2023-02-24T07:33:23.160Z,3.70
2023-02-24T07:35:52.166Z,2.08
2023-02-24T07:38:23.074Z,1.95
2023-02-24T07:40:51.725Z,2.55
2023-02-24T07:43:20.039Z,2.08
2023-02-24T07:45:48.664Z,2.25
2023-02-24T07:48:18.410Z,2.22
2023-02-24T07:50:46.827Z,2.20
2023-02-24T07:53:16.536Z,2.60
2023-02-24T07:55:44.800Z,2.20
2023-02-24T07:58:13.138Z,2.40
2023-02-24T08:00:59.636Z,4.22
2023-02-24T08:03:30.361Z,4.22
2023-02-24T08:06:13.026Z,2.73
2023-02-24T08:08:57.968Z,2.63
2023-02-24T08:11:27.800Z,3.47
2023-02-24T08:13:59.203Z,2.95
2023-02-24T08:16:39.586Z,2.97
2023-02-24T08:19:13.100Z,3.38
2023-02-24T08:21:47.350Z,3.58
2023-02-24T08:24:18.627Z,3.60
2023-02-24T08:26:53.842Z,3.90
2023-02-24T08:29:24.206Z,3.20
2023-02-24T08:31:52.628Z,3.22
2023-02-24T08:34:22.505Z,2.53
2023-02-24T08:36:56.083Z,3.05
2023-02-24T08:39:24.503Z,2.72
2023-02-24T08:41:54.922Z,2.78
2023-02-24T08:44:23.353Z,2.47
2023-02-24T08:46:52.556Z,2.50
2023-02-24T08:49:24.967Z,2.35
2023-02-24T08:51:54.416Z,2.75
2023-02-24T08:54:27.557Z,3.22
2023-02-24T08:56:57.988Z,5.07
2023-02-24T08:59:38.110Z,5.30
2023-02-24T09:02:27.437Z,5.13
2023-02-24T09:05:03.653Z,5.00
2023-02-24T09:07:35.628Z,5.18
2023-02-24T09:10:11.674Z,4.30
2023-02-24T09:12:41.357Z,4.95
2023-02-24T09:15:12.135Z,5.00
2023-02-24T09:17:50.269Z,4.95
2023-02-24T09:20:39.009Z,5.30
2023-02-24T09:23:07.706Z,4.55
2023-02-24T09:25:45.112Z,3.88
2023-02-24T09:28:17.534Z,4.72
2023-02-24T09:30:57.423Z,4.60
2023-02-24T09:33:27.780Z,3.95
2023-02-24T09:36:10.093Z,3.35
2023-02-24T09:38:57.456Z,4.55
2023-02-24T09:41:53.897Z,4.20
2023-02-24T09:44:29.569Z,4.55
2023-02-24T09:47:09.099Z,3.83
2023-02-24T09:49:48.812Z,4.32
2023-02-24T09:52:20.947Z,4.82
2023-02-24T09:55:10.234Z,4.68
2023-02-24T09:58:03.303Z,4.68
2023-02-24T10:00:34.902Z,4.47
2023-02-24T10:05:59.135Z,4.75
2023-02-24T10:08:35.937Z,4.68
2023-02-24T10:11:08.741Z,5.10
2023-02-24T10:13:43.742Z,4.93
2023-02-24T10:16:24.250Z,4.35
2023-02-24T10:19:01.432Z,4.95
2023-02-24T10:21:49.872Z,4.78
2023-02-24T10:24:29.461Z,5.55
2023-02-24T10:27:08.689Z,5.75
2023-02-24T10:29:50.914Z,5.97
2023-02-24T10:32:29.247Z,6.22
2023-02-24T10:34:57.653Z,6.25
2023-02-24T10:37:29.630Z,6.20
2023-02-24T10:40:09.789Z,6.80
2023-02-24T10:42:47.950Z,6.38
2023-02-24T10:45:19.650Z,6.38
2023-02-24T10:47:57.016Z,6.30
2023-02-24T10:50:32.246Z,6.75
2023-02-24T10:53:26.330Z,7.05
2023-02-24T10:56:15.373Z,6.82
2023-02-24T10:58:56.942Z,6.78
2023-02-24T11:04:43.919Z,6.65
2023-02-24T11:07:24.734Z,6.82
2023-02-24T11:10:13.735Z,7.85
2023-02-24T11:13:09.863Z,7.30
2023-02-24T11:16:00.873Z,7.10
2023-02-24T11:18:31.449Z,7.05
2023-02-24T11:21:01.555Z,7.80
2023-02-24T11:23:35.049Z,7.72
2023-02-24T11:26:08.173Z,6.85
2023-02-24T11:28:54.517Z,7.32
2023-02-24T11:31:36.324Z,7.60
2023-02-24T11:34:10.573Z,7.45
2023-02-24T11:36:45.705Z,7.28
2023-02-24T11:39:34.324Z,7.35
2023-02-24T11:42:11.397Z,6.97
2023-02-24T11:44:49.864Z,6.95
2023-02-24T11:47:24.285Z,7.30
2023-02-24T11:49:59.323Z,7.25
2023-02-24T11:52:32.729Z,6.95
2023-02-24T11:55:05.515Z,7.07
2023-02-24T11:57:39.550Z,7.32
2023-02-24T12:00:20.311Z,7.32
2023-02-24T12:02:55.057Z,7.20
2023-02-24T12:05:28.484Z,7.35
2023-02-24T12:08:03.534Z,8.00
2023-02-24T12:10:36.657Z,7.00
2023-02-24T12:13:14.550Z,7.13
2023-02-24T12:15:47.542Z,6.55
2023-02-24T12:18:23.363Z,6.72
2023-02-24T12:20:59.481Z,7.35
2023-02-24T12:23:33.058Z,6.95
2023-02-24T12:26:16.903Z,6.90
2023-02-24T12:29:16.315Z,7.00
2023-02-24T12:31:56.337Z,6.68
2023-02-24T12:34:36.819Z,7.03
2023-02-24T12:37:23.494Z,6.18
2023-02-24T12:40:04.272Z,6.32
2023-02-24T12:42:42.550Z,7.00
2023-02-24T12:45:18.905Z,6.95
2023-02-24T12:48:00.099Z,6.78
2023-02-24T12:50:38.967Z,6.85
2023-02-24T12:53:18.974Z,7.30
2023-02-24T12:55:59.206Z,7.20
2023-02-24T12:58:30.736Z,7.15
2023-02-24T13:03:50.831Z,7.38
2023-02-24T13:06:29.288Z,7.45
2023-02-24T13:09:03.060Z,7.65
2023-02-24T13:11:43.806Z,7.15
2023-02-24T13:14:23.071Z,7.53
2023-02-24T13:16:51.403Z,7.10
2023-02-24T13:19:23.450Z,7.32
2023-02-24T13:22:04.899Z,7.25
2023-02-24T13:24:34.310Z,7.05
2023-02-24T13:27:21.626Z,6.80
2023-02-24T13:29:52.604Z,7.32
2023-02-24T13:32:33.601Z,7.30
2023-02-24T13:35:06.076Z,7.70
2023-02-24T13:37:37.647Z,7.45
2023-02-24T13:40:23.669Z,7.88
2023-02-24T13:43:00.604Z,7.32
2023-02-24T13:45:31.327Z,6.90
2023-02-24T13:48:15.475Z,7.63
2023-02-24T13:51:03.633Z,7.20
2023-02-24T13:53:41.867Z,8.02
2023-02-24T13:56:30.220Z,7.28
2023-02-24T13:59:17.098Z,7.82
2023-02-24T14:01:51.212Z,7.78
2023-02-24T14:04:22.651Z,8.63
2023-02-24T14:09:28.039Z,7.47
2023-02-24T14:12:00.426Z,8.00
2023-02-24T14:14:29.364Z,7.68
2023-02-24T14:16:57.840Z,7.75
2023-02-24T14:19:27.284Z,7.97
2023-02-24T14:22:01.287Z,7.10
2023-02-24T14:24:30.060Z,7.82
2023-02-24T14:27:00.313Z,7.78
2023-02-24T14:29:32.191Z,7.80
2023-02-24T14:32:01.053Z,7.93
2023-02-24T14:34:33.954Z,7.25
2023-02-24T14:37:05.395Z,7.70
2023-02-24T14:42:13.794Z,7.05
2023-02-24T14:44:45.998Z,7.05
2023-02-24T14:47:19.535Z,7.78
2023-02-24T14:49:56.357Z,7.30
2023-02-24T14:52:33.692Z,8.48
2023-02-24T14:55:07.276Z,7.93
2023-02-24T14:57:39.606Z,7.97
2023-02-24T15:00:17.461Z,7.63
2023-02-24T15:02:50.086Z,7.68
2023-02-24T15:05:18.675Z,7.72
2023-02-24T15:07:50.710Z,7.47
2023-02-24T15:10:24.205Z,8.10
2023-02-24T15:12:56.287Z,7.90
2023-02-24T15:15:28.234Z,8.30
2023-02-24T15:17:58.682Z,7.50
2023-02-24T15:20:34.061Z,7.30
2023-02-24T15:23:06.408Z,7.53
2023-02-24T15:25:44.704Z,7.90
2023-02-24T15:28:25.980Z,7.53
2023-02-24T15:31:03.478Z,7.78
2023-02-24T15:33:36.841Z,7.45
2023-02-24T15:36:11.421Z,7.75
2023-02-24T15:38:43.960Z,8.13
2023-02-24T15:41:13.612Z,7.07
2023-02-24T15:43:48.576Z,7.43
2023-02-24T15:46:23.889Z,7.57
2023-02-24T15:48:54.088Z,6.85
2023-02-24T15:51:36.674Z,8.02
2023-02-24T15:54:09.939Z,8.23
2023-02-24T15:56:38.305Z,8.07
2023-02-24T15:59:06.630Z,8.52
2023-02-24T16:01:35.837Z,8.20
2023-02-24T16:04:05.813Z,8.95
2023-02-24T16:06:36.116Z,8.68
2023-02-24T16:09:06.628Z,8.90
2023-02-24T16:11:40.354Z,9.02
2023-02-24T16:14:11.155Z,9.52
2023-02-24T16:16:39.667Z,10.18
2023-02-24T16:19:08.296Z,9.93
2023-02-24T16:21:36.861Z,9.52
2023-02-24T16:24:07.234Z,10.10
2023-02-24T16:26:38.980Z,9.68
2023-02-24T16:29:11.551Z,9.23
2023-02-24T16:31:41.199Z,9.30
2023-02-24T16:34:12.605Z,9.02
2023-02-24T16:36:40.945Z,8.73
2023-02-24T16:39:11.650Z,9.27
2023-02-24T16:41:40.027Z,9.68
2023-02-24T16:44:09.491Z,9.27
2023-02-24T16:46:41.316Z,9.45
2023-02-24T16:49:14.087Z,9.75
2023-02-24T16:51:42.454Z,9.18
2023-02-24T16:54:12.487Z,8.45
2023-02-24T16:56:40.948Z,8.73
2023-02-24T16:59:09.437Z,8.27
2023-02-24T17:01:38.502Z,8.85
2023-02-24T17:04:10.072Z,9.88
2023-02-24T17:09:08.752Z,8.30
2023-02-24T17:11:38.499Z,8.15
2023-02-24T17:14:06.790Z,8.38
2023-02-24T17:16:35.067Z,8.73
2023-02-24T17:19:04.827Z,9.50
2023-02-24T17:21:37.826Z,8.60
2023-02-24T17:24:06.987Z,8.77
2023-02-24T17:26:35.931Z,8.40
2023-02-24T17:29:06.224Z,8.40
2023-02-24T17:31:35.336Z,8.95
2023-02-24T17:34:06.222Z,15.77
2023-02-24T17:36:35.041Z,14.50
2023-02-24T17:39:03.466Z,14.77
2023-02-24T17:41:31.824Z,14.68
2023-02-24T17:44:01.613Z,13.38
2023-02-24T17:46:31.999Z,12.55
2023-02-24T17:49:05.567Z,12.60
2023-02-24T17:51:34.203Z,12.93
2023-02-24T17:54:02.795Z,12.48
2023-02-24T17:56:33.348Z,12.90
2023-02-24T17:59:01.939Z,12.82
2023-02-24T18:01:31.868Z,12.18
2023-02-24T18:04:00.425Z,11.70
2023-02-24T18:06:29.282Z,10.98
2023-02-24T18:08:57.757Z,10.80
2023-02-24T18:11:29.288Z,10.85
2023-02-24T18:16:30.270Z,10.57
2023-02-24T18:19:00.315Z,11.32
2023-02-24T18:21:34.221Z,11.00
2023-02-24T18:24:03.755Z,12.40
2023-02-24T18:26:34.804Z,11.35
2023-02-24T18:29:04.141Z,11.23
2023-02-24T18:31:37.381Z,12.20
2023-02-24T18:34:07.796Z,11.43
2023-02-24T18:36:37.139Z,10.50
2023-02-24T18:39:07.660Z,8.35
2023-02-24T18:41:36.804Z,6.72
2023-02-24T18:44:06.288Z,4.63
2023-02-24T18:46:34.958Z,2.67
2023-02-24T18:49:03.861Z,3.30
2023-02-24T18:51:33.988Z,1.55
2023-02-24T18:54:02.480Z,2.22
2023-02-24T18:56:32.414Z,1.33
2023-02-24T18:59:02.209Z,2.00
2023-02-24T19:01:33.003Z,1.45
2023-02-24T19:04:02.440Z,1.52
2023-02-24T19:06:36.993Z,1.70
2023-02-24T19:09:09.944Z,1.33
2023-02-24T19:11:39.301Z,1.90
2023-02-24T19:14:07.996Z,2.00
2023-02-24T19:16:36.810Z,1.80
2023-02-24T19:19:06.164Z,1.90
2023-02-24T19:21:36.190Z,2.63
2023-02-24T19:24:08.468Z,1.80
2023-02-24T19:26:37.168Z,1.80
2023-02-24T19:29:05.922Z,1.50
2023-02-24T19:31:41.338Z,1.92
2023-02-24T19:34:35.669Z,1.75
2023-02-24T19:37:05.864Z,1.60
2023-02-24T19:39:34.344Z,1.48
2023-02-24T19:42:02.630Z,1.77
2023-02-24T19:44:31.128Z,1.63
2023-02-24T19:46:59.845Z,2.60
2023-02-24T19:49:28.514Z,2.63
2023-02-24T19:51:57.781Z,2.72
2023-02-24T19:54:28.038Z,2.58
2023-02-24T19:56:57.952Z,3.38
2023-02-24T19:59:26.443Z,2.67
2023-02-24T20:01:55.492Z,2.03
2023-02-24T20:04:25.099Z,2.38
2023-02-24T20:06:53.685Z,2.00
2023-02-24T20:09:22.470Z,2.47
2023-02-24T20:11:54.287Z,2.33
2023-02-24T20:14:22.661Z,2.42
2023-02-24T20:16:51.332Z,2.25
2023-02-24T20:19:20.306Z,2.45
2023-02-24T20:21:51.150Z,2.78
2023-02-24T20:24:21.989Z,2.88
2023-02-24T20:26:51.953Z,2.55
2023-02-24T20:29:22.104Z,2.40
2023-02-24T20:31:51.129Z,2.10
2023-02-24T20:34:19.721Z,3.05
2023-02-24T20:36:48.055Z,3.03
2023-02-24T20:39:16.541Z,2.47
2023-02-24T20:41:45.131Z,3.10
2023-02-24T20:44:15.285Z,3.05
2023-02-24T20:46:43.883Z,3.50
2023-02-24T20:49:15.051Z,2.88
2023-02-24T20:51:44.066Z,2.70
2023-02-24T20:54:14.046Z,2.55
2023-02-24T20:56:44.526Z,3.58
2023-02-24T20:59:16.879Z,2.45
2023-02-24T21:01:47.297Z,2.42
2023-02-24T21:04:18.128Z,2.80
2023-02-24T21:06:48.265Z,2.72
2023-02-24T21:09:16.707Z,2.80
2023-02-24T21:11:45.129Z,2.60
2023-02-24T21:14:18.054Z,1.48
2023-02-24T21:16:47.181Z,2.55
2023-02-24T21:19:16.067Z,2.15
2023-02-24T21:21:44.407Z,2.28
2023-02-24T21:24:12.776Z,1.48
2023-02-24T21:26:41.082Z,1.65
2023-02-24T21:29:09.382Z,2.05
2023-02-24T21:31:39.385Z,1.63
2023-02-24T21:34:11.409Z,1.05
2023-02-24T21:36:39.846Z,0.80
2023-02-24T21:39:08.351Z,0.90
2023-02-24T21:41:36.664Z,1.35
2023-02-24T21:44:05.338Z,1.50
2023-02-24T21:46:34.389Z,1.38
2023-02-24T21:49:04.312Z,1.40
2023-02-24T21:51:33.586Z,1.05
2023-02-24T21:54:01.952Z,0.88
2023-02-24T21:56:31.560Z,1.10
2023-02-24T21:59:01.866Z,1.13
2023-02-24T22:01:32.908Z,1.30
2023-02-24T22:04:05.689Z,1.00
2023-02-24T22:06:35.936Z,1.38
2023-02-24T22:09:07.094Z,1.30
2023-02-24T22:11:37.080Z,1.75
2023-02-24T22:14:07.826Z,1.42
2023-02-24T22:16:36.237Z,1.53
2023-02-24T22:19:06.428Z,1.73
2023-02-24T22:21:35.052Z,2.08
2023-02-24T22:24:04.726Z,1.30
2023-02-24T22:26:33.369Z,1.58
2023-02-24T22:29:02.341Z,1.63
2023-02-24T22:31:32.802Z,1.13
2023-02-24T22:34:02.024Z,1.02
2023-02-24T22:36:33.986Z,1.83
2023-02-24T22:39:03.067Z,1.50
2023-02-24T22:41:33.489Z,1.17
2023-02-24T22:44:02.937Z,2.08
2023-02-24T22:46:33.323Z,1.27
2023-02-24T22:49:02.126Z,1.50
2023-02-24T22:51:31.895Z,1.98
2023-02-24T22:54:00.270Z,1.27
2023-02-24T22:56:30.183Z,0.85
2023-02-24T22:59:00.663Z,1.00
2023-02-24T23:01:31.637Z,0.70
2023-02-24T23:04:01.235Z,1.00
2023-02-24T23:06:31.870Z,0.50
2023-02-24T23:09:01.346Z,1.00
2023-02-24T23:11:30.912Z,1.10
2023-02-24T23:14:01.309Z,1.50
2023-02-24T23:16:31.836Z,1.63
2023-02-24T23:19:04.394Z,1.40
2023-02-24T23:21:38.041Z,1.65
2023-02-24T23:24:08.017Z,2.00
2023-02-24T23:26:38.312Z,2.30
2023-02-24T23:29:07.279Z,2.67
2023-02-24T23:31:35.830Z,3.00
2023-02-24T23:34:07.266Z,3.30
2023-02-24T23:36:38.228Z,3.20
2023-02-24T23:39:07.709Z,3.22
2023-02-24T23:41:36.521Z,3.13
2023-02-24T23:44:06.937Z,2.30
2023-02-24T23:46:36.324Z,1.30
2023-02-24T23:49:05.854Z,1.20
2023-02-24T23:51:50.144Z,1.20
2023-02-24T23:54:20.590Z,0.90
2023-02-24T23:56:49.226Z,1.13
2023-02-24T23:59:17.598Z,1.30
